sensor_id;sensor_type;location;lat;lon;timestamp;temperature;humidity
46335;DHT22;32051;48.882;9.210;2023-10-08T11:33:59;29.90;81.80
46335;DHT22;32051;48.882;9.210;2023-10-08T11:36:27;29.70;80.10
46335;DHT22;32051;48.882;9.210;2023-10-08T11:38:59;30.10;78.80
46335;DHT22;32051;48.882;9.210;2023-10-08T11:41:34;30.30;78.30
46335;DHT22;32051;48.882;9.210;2023-10-08T11:44:17;30.80;76.90
46335;DHT22;32051;48.882;9.210;2023-10-08T11:46:49;30.90;76.00
46335;DHT22;32051;48.882;9.210;2023-10-08T11:49:18;31.30;75.40
46335;DHT22;32051;48.882;9.210;2023-10-08T11:51:45;31.70;74.90
46335;DHT22;32051;48.882;9.210;2023-10-08T11:54:14;32.20;75.90
46335;DHT22;32051;48.882;9.210;2023-10-08T11:56:40;32.70;73.00
46335;DHT22;32051;48.882;9.210;2023-10-08T11:59:06;33.10;71.50
46335;DHT22;32051;48.882;9.210;2023-10-08T12:01:36;33.50;69.20
46335;DHT22;32051;48.882;9.210;2023-10-08T12:04:04;33.70;67.10
46335;DHT22;32051;48.882;9.210;2023-10-08T12:06:30;33.90;72.20
46335;DHT22;32051;48.882;9.210;2023-10-08T12:19:01;34.20;69.80
46335;DHT22;32051;48.882;9.210;2023-10-08T12:21:28;34.10;64.30
46335;DHT22;32051;48.882;9.210;2023-10-08T12:23:58;34.20;64.70
46335;DHT22;32051;48.882;9.210;2023-10-08T12:33:48;34.50;65.30
46335;DHT22;32051;48.882;9.210;2023-10-08T12:36:14;35.10;63.10
46335;DHT22;32051;48.882;9.210;2023-10-08T12:38:43;35.10;61.90
46335;DHT22;32051;48.882;9.210;2023-10-08T12:41:12;35.40;71.40
46335;DHT22;32051;48.882;9.210;2023-10-08T12:43:42;35.50;63.10
46335;DHT22;32051;48.882;9.210;2023-10-08T12:48:44;35.50;60.30
46335;DHT22;32051;48.882;9.210;2023-10-08T12:51:13;35.40;60.20
46335;DHT22;32051;48.882;9.210;2023-10-08T12:53:40;35.50;61.90
46335;DHT22;32051;48.882;9.210;2023-10-08T12:56:08;35.70;60.40
46335;DHT22;32051;48.882;9.210;2023-10-08T12:58:41;35.40;58.90
46335;DHT22;32051;48.882;9.210;2023-10-08T13:01:10;34.90;58.40
46335;DHT22;32051;48.882;9.210;2023-10-08T13:03:36;34.90;59.20
46335;DHT22;32051;48.882;9.210;2023-10-08T13:06:08;35.10;59.30
46335;DHT22;32051;48.882;9.210;2023-10-08T13:08:40;35.20;58.80
46335;DHT22;32051;48.882;9.210;2023-10-08T13:11:06;35.20;58.70
46335;DHT22;32051;48.882;9.210;2023-10-08T13:13:33;35.20;57.80
46335;DHT22;32051;48.882;9.210;2023-10-08T13:16:00;35.10;57.20
46335;DHT22;32051;48.882;9.210;2023-10-08T13:18:29;35.10;56.90
46335;DHT22;32051;48.882;9.210;2023-10-08T13:20:55;35.00;56.60
46335;DHT22;32051;48.882;9.210;2023-10-08T13:23:23;34.90;57.00
46335;DHT22;32051;48.882;9.210;2023-10-08T13:25:52;34.80;57.70
46335;DHT22;32051;48.882;9.210;2023-10-08T13:30:53;34.20;56.30
46335;DHT22;32051;48.882;9.210;2023-10-08T13:33:22;34.10;57.20
46335;DHT22;32051;48.882;9.210;2023-10-08T13:35:49;33.40;57.30
46335;DHT22;32051;48.882;9.210;2023-10-08T13:38:19;32.90;57.50
46335;DHT22;32051;48.882;9.210;2023-10-08T13:46:06;30.30;61.90
46335;DHT22;32051;48.882;9.210;2023-10-08T13:48:35;30.10;62.30
46335;DHT22;32051;48.882;9.210;2023-10-08T13:51:04;29.70;64.50
46335;DHT22;32051;48.882;9.210;2023-10-08T13:53:31;29.30;66.20
46335;DHT22;32051;48.882;9.210;2023-10-08T13:55:58;28.90;67.00
46335;DHT22;32051;48.882;9.210;2023-10-08T13:58:29;28.50;68.30
46335;DHT22;32051;48.882;9.210;2023-10-08T14:00:58;28.20;68.40
46335;DHT22;32051;48.882;9.210;2023-10-08T14:03:30;27.80;68.30
46335;DHT22;32051;48.882;9.210;2023-10-08T14:05:59;27.50;66.70
46335;DHT22;32051;48.882;9.210;2023-10-08T14:08:29;27.20;66.00
46335;DHT22;32051;48.882;9.210;2023-10-08T14:10:56;27.00;69.30
46335;DHT22;32051;48.882;9.210;2023-10-08T14:13:32;26.80;72.40
46335;DHT22;32051;48.882;9.210;2023-10-08T14:16:01;26.50;74.50
46335;DHT22;32051;48.882;9.210;2023-10-08T14:18:33;26.30;75.80
46335;DHT22;32051;48.882;9.210;2023-10-08T14:21:09;26.10;77.10
46335;DHT22;32051;48.882;9.210;2023-10-08T14:23:36;25.90;77.90
46335;DHT22;32051;48.882;9.210;2023-10-08T14:26:08;25.80;78.40
46335;DHT22;32051;48.882;9.210;2023-10-08T14:28:34;25.60;78.50
46335;DHT22;32051;48.882;9.210;2023-10-08T14:31:09;25.50;78.30
46335;DHT22;32051;48.882;9.210;2023-10-08T14:33:41;25.40;79.00
46335;DHT22;32051;48.882;9.210;2023-10-08T14:36:09;25.30;79.20
